createdAt,value
2019-01-11T00:02:15.667Z,31.799999
2019-01-11T00:07:40.066Z,29.799999
2019-01-11T00:13:09.552Z,34.400002
2019-01-11T00:18:33.232Z,23.6
2019-01-11T00:23:56.569Z,25.4
2019-01-11T00:29:19.872Z,22.9
2019-01-11T00:34:45.568Z,24.1
2019-01-11T00:40:10.188Z,25.4
2019-01-11T00:45:34.548Z,22.700001
2019-01-11T00:50:58.386Z,27
2019-01-11T00:56:21.112Z,27.200001
2019-01-11T01:01:46.553Z,29.700001
2019-01-11T01:07:11.296Z,33.799999
2019-01-11T01:12:35.704Z,31.9
2019-01-11T01:18:02.045Z,32.5
2019-01-11T01:23:26.169Z,37.799999
2019-01-11T01:28:48.896Z,38.200001
2019-01-11T01:34:14.261Z,38.700001
2019-01-11T01:39:37.826Z,40
2019-01-11T01:45:00.218Z,43.700001
2019-01-11T01:50:22.906Z,43.299999
2019-01-11T01:55:48.058Z,43.700001
2019-01-11T02:01:14.560Z,53.200001
2019-01-11T02:06:38.309Z,46.700001
2019-01-11T02:12:04.542Z,43.599998
2019-01-11T02:17:28.013Z,49.599998
2019-01-11T02:22:50.806Z,49.799999
2019-01-11T02:28:15.305Z,46.799999
2019-01-11T02:33:38.537Z,49.799999
2019-01-11T02:39:01.462Z,51.5
2019-01-11T02:44:25.591Z,46.700001
2019-01-11T02:49:48.428Z,47.599998
2019-01-11T02:55:13.016Z,55.900002
2019-01-11T03:00:35.728Z,54.400002
2019-01-11T03:06:00.351Z,48.299999
2019-01-11T03:11:24.168Z,53.5
2019-01-11T03:16:47.836Z,41.900002
2019-01-11T03:22:12.665Z,46.099998
2019-01-11T03:27:39.032Z,51.400002
2019-01-11T03:33:03.639Z,44.700001
2019-01-11T03:38:27.038Z,55.799999
2019-01-11T03:43:49.716Z,53.599998
2019-01-11T03:49:13.190Z,66.5
2019-01-11T03:54:38.024Z,57.099998
2019-01-11T04:00:02.034Z,66.800003
2019-01-11T04:05:26.275Z,54.5
2019-01-11T04:10:49.643Z,60.200001
2019-01-11T04:16:14.037Z,58
2019-01-11T04:21:37.769Z,83.400002
2019-01-11T04:27:02.551Z,95.699997
2019-01-11T04:32:30.165Z,101.19999
2019-01-11T04:37:53.770Z,84.599998
2019-01-11T04:43:17.159Z,119.19999
2019-01-11T04:48:44.586Z,93.400002
2019-01-11T04:54:08.791Z,126.59999
2019-01-11T04:59:33.537Z,140
2019-01-11T05:04:56.197Z,135.6
2019-01-11T05:10:19.627Z,122.5
2019-01-11T05:15:44.008Z,154.8
2019-01-11T05:21:07.505Z,158.89999
2019-01-11T05:26:31.168Z,192.1
2019-01-11T05:31:53.853Z,183.39999
2019-01-11T05:37:17.023Z,194.3
2019-01-11T05:42:40.121Z,199.39999
2019-01-11T05:48:03.198Z,274.79998
2019-01-11T05:53:26.357Z,218.8
2019-01-11T05:58:49.735Z,262.5
2019-01-11T06:04:13.176Z,294
2019-01-11T06:09:36.313Z,282
2019-01-11T06:14:59.429Z,258.89999
2019-01-11T06:20:21.245Z,301
2019-01-11T06:25:44.762Z,337.6
2019-01-11T06:31:10.468Z,394.70001
2019-01-11T06:36:33.154Z,396.70001
2019-01-11T06:41:55.984Z,334.70001
2019-01-11T06:47:18.760Z,463
2019-01-11T06:52:41.490Z,414.39999
2019-01-11T06:58:04.559Z,515.40002
2019-01-11T07:03:27.353Z,443.70001
2019-01-11T07:08:50.086Z,482.1
2019-01-11T07:14:12.882Z,544.90002
2019-01-11T07:19:35.615Z,540.09997
2019-01-11T07:24:58.488Z,538.70001
2019-01-11T07:30:21.249Z,483.20001
2019-01-11T07:35:43.968Z,540.40002
2019-01-11T07:41:07.769Z,854.90002
2019-01-11T07:46:31.628Z,642.20001
2019-01-11T07:51:54.628Z,931.70001
2019-01-11T07:57:17.456Z,669.40002
2019-01-11T08:02:40.411Z,732.09997
2019-01-11T08:08:03.321Z,597.40002
2019-01-11T08:13:27.269Z,753.70001
2019-01-11T08:18:51.236Z,838.59997
2019-01-11T08:24:14.163Z,1030.0999
2019-01-11T08:29:38.481Z,964.79998
2019-01-11T08:35:01.252Z,807.59997
2019-01-11T08:40:24.996Z,620.20001
2019-01-11T08:45:47.763Z,793.79998
2019-01-11T08:51:11.169Z,906.29998
2019-01-11T08:56:33.837Z,854.09997
2019-01-11T09:01:56.574Z,803.09997
2019-01-11T09:07:19.257Z,811
2019-01-11T09:12:42.972Z,937
2019-01-11T09:18:05.692Z,825.5
2019-01-11T09:23:28.399Z,975.29998
2019-01-11T09:28:51.772Z,828.79998
2019-01-11T09:34:14.468Z,567.5
2019-01-11T09:39:38.256Z,873.20001
2019-01-11T09:45:01.025Z,906.59997
2019-01-11T09:50:24.270Z,772.40002
2019-01-11T09:55:47.297Z,705
2019-01-11T10:01:10.072Z,599.5
2019-01-11T10:06:32.878Z,603.90002
2019-01-11T10:11:55.637Z,490.20001
2019-01-11T10:17:18.529Z,691.79998
2019-01-11T10:22:41.330Z,597.09997
2019-01-11T10:28:05.482Z,575.20001
2019-01-11T10:33:27.205Z,571.09997
2019-01-11T10:38:50.629Z,568.70001
2019-01-11T10:44:13.566Z,481
2019-01-11T10:49:37.105Z,346.5
2019-01-11T10:54:59.882Z,565
2019-01-11T11:00:24.491Z,452.20001
2019-01-11T11:05:50.013Z,553.40002
2019-01-11T11:11:16.538Z,434.1
2019-01-11T11:16:37.725Z,377.70001
2019-01-11T11:22:01.244Z,411.79998
2019-01-11T11:27:23.960Z,373.20001
2019-01-11T11:32:46.703Z,365.79998
2019-01-11T11:38:09.546Z,278.29998
2019-01-11T11:43:33.135Z,362.6
2019-01-11T11:48:58.468Z,308.79998
2019-01-11T11:54:22.213Z,363.79998
2019-01-11T11:59:46.952Z,361.79998
2019-01-11T12:05:10.564Z,253.3
2019-01-11T12:10:34.202Z,191.8
2019-01-11T12:15:57.739Z,136.89999
2019-01-11T12:21:21.897Z,108.8
2019-01-11T12:26:44.655Z,98.300003
2019-01-11T12:32:08.060Z,48.700001
2019-01-11T12:37:37.461Z,32.900002
2019-01-11T12:43:03.235Z,28
2019-01-11T12:48:29.442Z,28.4
2019-01-11T12:53:53.699Z,23.1
2019-01-11T12:59:16.567Z,22.700001
2019-01-11T13:04:40.142Z,14
2019-01-11T13:10:04.467Z,14.7
2019-01-11T13:15:27.591Z,13.5
2019-01-11T13:20:51.287Z,10.9
2019-01-11T13:26:14.041Z,10.8
2019-01-11T13:31:36.804Z,10
2019-01-11T13:37:00.944Z,10.8
2019-01-11T13:42:25.615Z,14.5
2019-01-11T13:47:48.291Z,12.6
2019-01-11T13:53:11.638Z,11.8
2019-01-11T13:58:34.951Z,11.5
2019-01-11T14:03:57.653Z,14.9
2019-01-11T14:09:20.698Z,12.8
2019-01-11T14:14:43.579Z,10.9
2019-01-11T14:20:06.429Z,13.8
2019-01-11T14:25:38.079Z,11.8
2019-01-11T14:31:00.905Z,8.7
2019-01-11T14:36:24.728Z,8.3
2019-01-11T14:41:48.638Z,10.3
2019-01-11T14:47:21.129Z,9.5
2019-01-11T14:52:44.535Z,12.1
2019-01-11T14:58:08.237Z,11.4
2019-01-11T15:03:30.902Z,12.6
2019-01-11T15:08:54.524Z,14.2
2019-01-11T15:14:18.860Z,11.6
2019-01-11T15:19:41.647Z,8.5
2019-01-11T15:25:05.186Z,16.299999
2019-01-11T15:30:28.078Z,12
2019-01-11T15:35:50.820Z,12.6
2019-01-11T15:41:15.312Z,8.2
2019-01-11T15:46:38.034Z,7.4
2019-01-11T15:52:00.717Z,8.7
2019-01-11T15:57:26.508Z,7.5
2019-01-11T16:02:49.950Z,7.8
2019-01-11T16:08:12.729Z,10.1
2019-01-11T16:13:36.107Z,11
2019-01-11T16:18:58.932Z,12.3
2019-01-11T16:24:22.276Z,10.2
2019-01-11T16:29:45.858Z,8.8
2019-01-11T16:35:09.322Z,10.2
2019-01-11T16:40:33.573Z,11.1
2019-01-11T16:45:56.266Z,9.4
2019-01-11T16:51:19.648Z,11.3
2019-01-11T16:56:55.662Z,13.9
2019-01-11T17:02:21.674Z,14.1
2019-01-11T17:07:46.827Z,10.7
2019-01-11T17:13:11.028Z,12.7
2019-01-11T17:18:35.029Z,15.7
2019-01-11T17:24:00.042Z,12.1
2019-01-11T17:29:23.551Z,14.2
2019-01-11T17:34:56.260Z,8.7
2019-01-11T17:40:20.232Z,11.1
2019-01-11T17:45:43.796Z,12.3
2019-01-11T17:51:06.491Z,11
2019-01-11T17:56:29.556Z,10.6
2019-01-11T18:01:52.448Z,9.3
2019-01-11T18:07:15.402Z,10.1
2019-01-11T18:12:38.089Z,10
2019-01-11T18:18:01.836Z,11.8
2019-01-11T18:23:25.452Z,10.7
2019-01-11T18:28:49.294Z,10.7
2019-01-11T18:34:12.032Z,16.4
2019-01-11T18:39:34.969Z,16.9
2019-01-11T18:44:58.079Z,13.2
2019-01-11T18:50:21.688Z,9.9
2019-01-11T18:55:44.591Z,13.5
2019-01-11T19:01:09.058Z,9.3
2019-01-11T19:06:31.930Z,15.8
2019-01-11T19:11:55.719Z,13.9
2019-01-11T19:17:18.455Z,13.2
2019-01-11T19:22:42.645Z,11.9
2019-01-11T19:28:07.263Z,12.7
2019-01-11T19:33:30.681Z,12.9
2019-01-11T19:39:04.037Z,12.6
2019-01-11T19:44:37.268Z,15.1
2019-01-11T19:50:09.201Z,15.9
2019-01-11T19:55:31.898Z,17.6
2019-01-11T20:01:04.633Z,18
2019-01-11T20:06:37.525Z,13.9
2019-01-11T20:12:11.873Z,19
2019-01-11T20:17:34.660Z,15.9
2019-01-11T20:23:09.841Z,16.799999
2019-01-11T20:28:42.376Z,12.4
2019-01-11T20:34:06.380Z,17.5
2019-01-11T20:39:41.450Z,15.8
2019-01-11T20:45:14.756Z,19.799999
2019-01-11T20:50:38.032Z,22.200001
2019-01-11T20:56:03.295Z,17.700001
2019-01-11T21:01:26.105Z,21.4
2019-01-11T21:07:01.119Z,22.6
2019-01-11T21:12:34.999Z,17.9
2019-01-11T21:17:57.685Z,24.799999
2019-01-11T21:23:30.887Z,16.200001
2019-01-11T21:29:05.247Z,17.1
2019-01-11T21:34:29.354Z,17.700001
2019-01-11T21:40:05.733Z,20.9
2019-01-11T21:45:38.436Z,20.700001
2019-01-11T21:51:01.356Z,16.299999
2019-01-11T21:56:35.330Z,17.9
2019-01-11T22:01:58.752Z,13.4
2019-01-11T22:07:22.343Z,17
2019-01-11T22:12:45.297Z,12.2
2019-01-11T22:18:48.821Z,12.4
2019-01-11T22:24:21.299Z,12.2
2019-01-11T22:29:44.886Z,15.9
2019-01-11T22:35:09.168Z,15.7
2019-01-11T22:40:32.539Z,13.8
2019-01-11T22:45:55.535Z,17.5
2019-01-11T22:51:26.481Z,13.2
2019-01-11T22:56:49.881Z,10.4
2019-01-11T23:02:13.850Z,10.1
2019-01-11T23:07:38.794Z,10.7
2019-01-11T23:13:11.650Z,11
2019-01-11T23:18:35.954Z,11.4
2019-01-11T23:23:59.794Z,9.5
2019-01-11T23:29:22.654Z,9.5
2019-01-11T23:34:45.398Z,13.5
2019-01-11T23:40:11.146Z,9.1
2019-01-11T23:45:34.004Z,11.6
2019-01-11T23:50:55.775Z,14.3
2019-01-11T23:56:19.540Z,11.9
